KIGM

Details ICAO KIGM
Name Kingman
Region United States
Timezone America/Phoenix (UTC-7.0)
Plans Departing 10
Arriving 6
Stats Elevation 3,449 ft / 1,051 m (AMSL)
Location 35.256788° -113.941098°
Runways 3
Magnetic Variation 11.178° E
Sunrise 2017-12-10 14:35:13 UTC / 2017-12-10 07:35:13 Local
Sunset 2017-12-11 00:25:07 UTC / 2017-12-10 17:25:07 Local
Advertisement - Login to hide

Runways

ID Width Length Bearing (true) Bearing (mag) Surface Threshold Offset Overrun Length
03 150 ft / 46 m 6,828 ft / 2,081 m 44.88° 33.70° Asphalt 0 ft / 0 m 0 ft / 0 m
08 150 ft / 46 m 6,786 ft / 2,068 m 89.99° 78.81° Asphalt 0 ft / 0 m 0 ft / 0 m
17 75 ft / 23 m 6,741 ft / 2,055 m 180.03° 168.85° Asphalt 0 ft / 0 m 0 ft / 0 m
21 150 ft / 46 m 6,828 ft / 2,081 m 224.89° 213.71° Asphalt 0 ft / 0 m 0 ft / 0 m
26 150 ft / 46 m 6,786 ft / 2,068 m 270.01° 258.83° Asphalt 0 ft / 0 m 0 ft / 0 m
35 75 ft / 23 m 6,741 ft / 2,055 m 0.03° 348.85° Asphalt 0 ft / 0 m 0 ft / 0 m

Map

Weather


0- 5 10 15 20 25 30 35+ Temperature / ° C

Clouds and Precipitation
Forecast for 2017-12-11 06:00 UTC. Updated 38 minutes ago

Ground ~20,000 ft ~40,000 ft Winds

METAR

KIGM 110451Z AUTO 12003KT 10SM CLR 03/M17 A3035 RMK AO2 SLP250 T00331167

TAF

Not found

Frequencies

Recorded 119.27 MHz ASOS
Unicom 122.80 MHz CTAF/UNICOM
Warning: Do not use this data for real-world aviation or navigation. No guarantee of current accuracy is given.